sensor_id;sensor_type;location;lat;lon;timestamp;pressure;altitude;pressure_sealevel;temperature;humidity
14293;BME280;62290;59.420;17.842;2022-11-20T00:01:05;101423.00;;;21.44;28.45
14293;BME280;62290;59.420;17.842;2022-11-20T00:03:34;101418.50;;;21.45;28.40
14293;BME280;62290;59.420;17.842;2022-11-20T00:06:03;101413.13;;;21.45;28.41
14293;BME280;62290;59.420;17.842;2022-11-20T00:08:31;101405.19;;;21.43;28.43
14293;BME280;62290;59.420;17.842;2022-11-20T00:11:03;101404.09;;;21.46;28.72
14293;BME280;62290;59.420;17.842;2022-11-20T00:13:31;101397.25;;;21.42;28.24
14293;BME280;62290;59.420;17.842;2022-11-20T00:16:03;101400.59;;;21.45;28.67
14293;BME280;62290;59.420;17.842;2022-11-20T00:18:32;101400.59;;;21.45;28.62
14293;BME280;62290;59.420;17.842;2022-11-20T00:21:01;101405.97;;;21.45;28.30
14293;BME280;62290;59.420;17.842;2022-11-20T00:23:30;101403.28;;;21.45;28.51
14293;BME280;62290;59.420;17.842;2022-11-20T00:26:01;101401.53;;;21.44;28.56
14293;BME280;62290;59.420;17.842;2022-11-20T00:28:30;101397.03;;;21.45;28.55
14293;BME280;62290;59.420;17.842;2022-11-20T00:31:04;101395.97;;;21.47;28.56
14293;BME280;62290;59.420;17.842;2022-11-20T00:33:32;101395.97;;;21.47;28.47
14293;BME280;62290;59.420;17.842;2022-11-20T00:36:01;101396.84;;;21.48;28.29
14293;BME280;62290;59.420;17.842;2022-11-20T00:38:30;101393.31;;;21.47;28.20
14293;BME280;62290;59.420;17.842;2022-11-20T00:40:59;101381.81;;;21.45;28.43
14293;BME280;62290;59.420;17.842;2022-11-20T00:43:27;101385.25;;;21.47;28.58
14293;BME280;62290;59.420;17.842;2022-11-20T00:45:57;101372.59;;;21.49;28.40
14293;BME280;62290;59.420;17.842;2022-11-20T00:48:26;101366.34;;;21.49;28.48
14293;BME280;62290;59.420;17.842;2022-11-20T00:50:54;101375.28;;;21.49;28.63
14293;BME280;62290;59.420;17.842;2022-11-20T00:53:23;101364.66;;;21.48;28.29
14293;BME280;62290;59.420;17.842;2022-11-20T00:55:55;101356.50;;;21.49;28.42
14293;BME280;62290;59.420;17.842;2022-11-20T00:58:27;101355.75;;;21.47;28.19
14293;BME280;62290;59.420;17.842;2022-11-20T01:01:00;101353.06;;;21.47;28.34
14293;BME280;62290;59.420;17.842;2022-11-20T01:03:32;101359.19;;;21.49;28.32
14293;BME280;62290;59.420;17.842;2022-11-20T01:06:00;101361.00;;;21.49;28.23
14293;BME280;62290;59.420;17.842;2022-11-20T01:08:30;101352.00;;;21.50;28.36
14293;BME280;62290;59.420;17.842;2022-11-20T01:11:00;101358.22;;;21.50;28.60
14293;BME280;62290;59.420;17.842;2022-11-20T01:13:29;101341.69;;;21.44;28.23
14293;BME280;62290;59.420;17.842;2022-11-20T01:16:09;101348.34;;;21.51;28.23
14293;BME280;62290;59.420;17.842;2022-11-20T01:18:40;101350.06;;;21.52;28.62
14293;BME280;62290;59.420;17.842;2022-11-20T01:21:10;101347.38;;;21.52;28.54
14293;BME280;62290;59.420;17.842;2022-11-20T01:23:40;101350.94;;;21.52;28.20
14293;BME280;62290;59.420;17.842;2022-11-20T01:26:10;101349.00;;;21.54;28.56
14293;BME280;62290;59.420;17.842;2022-11-20T01:28:40;101346.31;;;21.54;28.08
14293;BME280;62290;59.420;17.842;2022-11-20T01:31:12;101342.75;;;21.54;28.33
14293;BME280;62290;59.420;17.842;2022-11-20T01:33:43;101342.75;;;21.54;28.35
14293;BME280;62290;59.420;17.842;2022-11-20T01:36:12;101339.22;;;21.53;28.54
14293;BME280;62290;59.420;17.842;2022-11-20T01:38:41;101335.59;;;21.54;28.38
14293;BME280;62290;59.420;17.842;2022-11-20T01:41:11;101338.19;;;21.56;28.14
14293;BME280;62290;59.420;17.842;2022-11-20T01:44:01;101332.91;;;21.54;28.29
14293;BME280;62290;59.420;17.842;2022-11-20T01:46:28;101325.72;;;21.55;28.50
14293;BME280;62290;59.420;17.842;2022-11-20T01:49:01;101319.41;;;21.56;28.04
14293;BME280;62290;59.420;17.842;2022-11-20T01:51:33;101318.41;;;21.57;28.17
14293;BME280;62290;59.420;17.842;2022-11-20T01:54:06;101314.03;;;21.56;28.31
14293;BME280;62290;59.420;17.842;2022-11-20T01:56:38;101294.41;;;21.43;28.08
14293;BME280;62290;59.420;17.842;2022-11-20T01:59:10;101311.34;;;21.56;28.48
14293;BME280;62290;59.420;17.842;2022-11-20T02:01:41;101297.50;;;21.49;28.47
14293;BME280;62290;59.420;17.842;2022-11-20T02:04:11;101305.13;;;21.56;28.29
14293;BME280;62290;59.420;17.842;2022-11-20T02:06:42;101304.16;;;21.57;28.25
14293;BME280;62290;59.420;17.842;2022-11-20T02:09:12;101294.41;;;21.56;28.23
14293;BME280;62290;59.420;17.842;2022-11-20T02:11:39;101282.81;;;21.55;28.41
14293;BME280;62290;59.420;17.842;2022-11-20T02:14:08;101288.91;;;21.57;28.14
14293;BME280;62290;59.420;17.842;2022-11-20T02:16:38;101283.47;;;21.59;28.23
14293;BME280;62290;59.420;17.842;2022-11-20T02:19:13;101287.84;;;21.60;28.42
14293;BME280;62290;59.420;17.842;2022-11-20T02:21:48;101283.47;;;21.59;28.35
14293;BME280;62290;59.420;17.842;2022-11-20T02:24:19;101285.16;;;21.60;28.44
14293;BME280;62290;59.420;17.842;2022-11-20T02:26:50;101273.47;;;21.61;28.04
14293;BME280;62290;59.420;17.842;2022-11-20T02:29:25;101270.78;;;21.61;28.09
14293;BME280;62290;59.420;17.842;2022-11-20T02:31:55;101257.59;;;21.58;28.50
14293;BME280;62290;59.420;17.842;2022-11-20T02:34:24;101267.13;;;21.62;28.12
14293;BME280;62290;59.420;17.842;2022-11-20T02:36:52;101266.19;;;21.63;28.21
14293;BME280;62290;59.420;17.842;2022-11-20T02:39:24;101254.50;;;21.64;28.15
14293;BME280;62290;59.420;17.842;2022-11-20T02:41:53;101252.75;;;21.63;28.46
14293;BME280;62290;59.420;17.842;2022-11-20T02:44:22;101257.19;;;21.64;28.18
14293;BME280;62290;59.420;17.842;2022-11-20T02:46:49;101254.38;;;21.65;28.12
14293;BME280;62290;59.420;17.842;2022-11-20T02:49:17;101243.97;;;21.61;28.40
14293;BME280;62290;59.420;17.842;2022-11-20T02:51:46;101241.81;;;21.66;28.05
14293;BME280;62290;59.420;17.842;2022-11-20T02:54:14;101240.00;;;21.66;27.99
14293;BME280;62290;59.420;17.842;2022-11-20T02:56:43;101238.16;;;21.67;28.16
14293;BME280;62290;59.420;17.842;2022-11-20T02:59:11;101234.63;;;21.66;28.42
14293;BME280;62290;59.420;17.842;2022-11-20T03:01:39;101223.47;;;21.60;28.03
14293;BME280;62290;59.420;17.842;2022-11-20T03:04:07;101239.13;;;21.66;28.31
14293;BME280;62290;59.420;17.842;2022-11-20T03:06:35;101229.38;;;21.65;28.34
14293;BME280;62290;59.420;17.842;2022-11-20T03:09:03;101236.47;;;21.66;28.40
14293;BME280;62290;59.420;17.842;2022-11-20T03:11:31;101225.00;;;21.64;28.43
14293;BME280;62290;59.420;17.842;2022-11-20T03:14:03;101227.41;;;21.67;28.05
14293;BME280;62290;59.420;17.842;2022-11-20T03:16:32;101218.00;;;21.61;28.33
14293;BME280;62290;59.420;17.842;2022-11-20T03:19:00;101215.09;;;21.64;28.40
14293;BME280;62290;59.420;17.842;2022-11-20T03:21:28;101221.31;;;21.65;28.12
14293;BME280;62290;59.420;17.842;2022-11-20T03:23:56;101220.44;;;21.64;28.18
14293;BME280;62290;59.420;17.842;2022-11-20T03:26:25;101212.41;;;21.64;28.21
14293;BME280;62290;59.420;17.842;2022-11-20T03:28:55;101205.44;;;21.62;28.36
14293;BME280;62290;59.420;17.842;2022-11-20T03:31:27;101210.59;;;21.65;28.13
14293;BME280;62290;59.420;17.842;2022-11-20T03:33:56;101204.91;;;21.57;28.07
14293;BME280;62290;59.420;17.842;2022-11-20T03:36:24;101206.09;;;21.65;28.02
14293;BME280;62290;59.420;17.842;2022-11-20T03:38:53;101207.81;;;21.66;28.19
14293;BME280;62290;59.420;17.842;2022-11-20T03:41:23;101201.59;;;21.66;28.22
14293;BME280;62290;59.420;17.842;2022-11-20T03:43:52;101201.81;;;21.63;28.25
14293;BME280;62290;59.420;17.842;2022-11-20T03:46:21;101197.19;;;21.65;27.97
14293;BME280;62290;59.420;17.842;2022-11-20T03:48:51;101204.28;;;21.66;28.29
14293;BME280;62290;59.420;17.842;2022-11-20T03:51:21;101192.56;;;21.67;27.95
14293;BME280;62290;59.420;17.842;2022-11-20T03:53:51;101181.81;;;21.67;28.26
14293;BME280;62290;59.420;17.842;2022-11-20T03:56:22;101183.56;;;21.68;27.97
14293;BME280;62290;59.420;17.842;2022-11-20T03:58:50;101174.75;;;21.66;27.73
14293;BME280;62290;59.420;17.842;2022-11-20T04:01:20;101174.63;;;21.67;27.86
14293;BME280;62290;59.420;17.842;2022-11-20T04:03:48;101171.94;;;21.67;27.90
14293;BME280;62290;59.420;17.842;2022-11-20T04:06:20;101169.19;;;21.69;27.97
14293;BME280;62290;59.420;17.842;2022-11-20T04:08:48;101147.41;;;21.61;28.17
14293;BME280;62290;59.420;17.842;2022-11-20T04:11:21;101152.31;;;21.67;28.10
14293;BME280;62290;59.420;17.842;2022-11-20T04:13:51;101156.72;;;21.68;28.25
14293;BME280;62290;59.420;17.842;2022-11-20T04:16:20;101146.13;;;21.66;27.93
14293;BME280;62290;59.420;17.842;2022-11-20T04:18:51;101153.19;;;21.67;28.26
14293;BME280;62290;59.420;17.842;2022-11-20T04:21:22;101149.63;;;21.67;27.82
14293;BME280;62290;59.420;17.842;2022-11-20T04:23:50;101149.63;;;21.67;28.11
14293;BME280;62290;59.420;17.842;2022-11-20T04:26:20;101141.59;;;21.67;28.20
14293;BME280;62290;59.420;17.842;2022-11-20T04:28:49;101133.53;;;21.67;28.10
14293;BME280;62290;59.420;17.842;2022-11-20T04:31:19;101137.22;;;21.66;28.18
14293;BME280;62290;59.420;17.842;2022-11-20T04:33:47;101131.84;;;21.66;28.29
14293;BME280;62290;59.420;17.842;2022-11-20T04:36:16;101129.25;;;21.64;27.93
14293;BME280;62290;59.420;17.842;2022-11-20T04:38:46;101138.91;;;21.67;27.93
14293;BME280;62290;59.420;17.842;2022-11-20T04:41:23;101126.47;;;21.66;28.31
14293;BME280;62290;59.420;17.842;2022-11-20T04:43:53;101144.25;;;21.67;28.06
14293;BME280;62290;59.420;17.842;2022-11-20T04:46:26;101125.63;;;21.65;27.85
14293;BME280;62290;59.420;17.842;2022-11-20T04:48:54;101119.38;;;21.65;27.84
14293;BME280;62290;59.420;17.842;2022-11-20T04:51:23;101125.63;;;21.65;28.13
14293;BME280;62290;59.420;17.842;2022-11-20T04:53:52;101120.13;;;21.67;28.24
14293;BME280;62290;59.420;17.842;2022-11-20T04:56:21;101122.81;;;21.67;27.81
14293;BME280;62290;59.420;17.842;2022-11-20T04:58:49;101117.44;;;21.67;27.80
14293;BME280;62290;59.420;17.842;2022-11-20T05:01:19;101112.00;;;21.68;28.09
14293;BME280;62290;59.420;17.842;2022-11-20T05:03:47;101117.44;;;21.67;27.96
14293;BME280;62290;59.420;17.842;2022-11-20T05:06:18;101113.81;;;21.68;27.73
14293;BME280;62290;59.420;17.842;2022-11-20T05:08:47;101101.34;;;21.67;27.89
14293;BME280;62290;59.420;17.842;2022-11-20T05:11:18;101091.47;;;21.67;27.80
14293;BME280;62290;59.420;17.842;2022-11-20T05:13:46;101076.81;;;21.60;27.83
14293;BME280;62290;59.420;17.842;2022-11-20T05:16:17;101093.22;;;21.68;27.75
14293;BME280;62290;59.420;17.842;2022-11-20T05:18:45;101097.72;;;21.68;27.89
14293;BME280;62290;59.420;17.842;2022-11-20T05:21:14;101075.59;;;21.64;27.86
14293;BME280;62290;59.420;17.842;2022-11-20T05:23:43;101075.38;;;21.67;28.15
14293;BME280;62290;59.420;17.842;2022-11-20T05:26:14;101086.03;;;21.69;28.14
14293;BME280;62290;59.420;17.842;2022-11-20T05:28:43;101087.84;;;21.68;27.78
14293;BME280;62290;59.420;17.842;2022-11-20T05:31:14;101081.63;;;21.68;27.73
14293;BME280;62290;59.420;17.842;2022-11-20T05:33:49;101071.84;;;21.67;28.03
14293;BME280;62290;59.420;17.842;2022-11-20T05:36:17;101071.00;;;21.66;27.76
14293;BME280;62290;59.420;17.842;2022-11-20T05:38:45;101066.59;;;21.65;28.21
14293;BME280;62290;59.420;17.842;2022-11-20T05:41:18;101069.16;;;21.67;27.94
14293;BME280;62290;59.420;17.842;2022-11-20T05:43:49;101055.50;;;21.59;28.15
14293;BME280;62290;59.420;17.842;2022-11-20T05:46:18;101052.81;;;21.59;28.23
14293;BME280;62290;59.420;17.842;2022-11-20T05:48:54;101060.38;;;21.65;27.75
14293;BME280;62290;59.420;17.842;2022-11-20T05:51:22;101059.41;;;21.66;27.79
14293;BME280;62290;59.420;17.842;2022-11-20T05:53:50;101058.44;;;21.67;27.61
14293;BME280;62290;59.420;17.842;2022-11-20T05:56:19;101061.13;;;21.67;28.11
14293;BME280;62290;59.420;17.842;2022-11-20T05:58:49;101052.25;;;21.66;28.19
14293;BME280;62290;59.420;17.842;2022-11-20T06:01:18;101047.81;;;21.65;28.08
14293;BME280;62290;59.420;17.842;2022-11-20T06:03:47;101052.25;;;21.66;27.91
14293;BME280;62290;59.420;17.842;2022-11-20T06:06:18;101045.28;;;21.64;28.21
14293;BME280;62290;59.420;17.842;2022-11-20T06:08:47;101047.69;;;21.67;28.15
14293;BME280;62290;59.420;17.842;2022-11-20T06:11:15;101035.28;;;21.66;27.82
14293;BME280;62290;59.420;17.842;2022-11-20T06:13:44;101031.59;;;21.67;28.18
14293;BME280;62290;59.420;17.842;2022-11-20T06:16:15;101029.78;;;21.67;27.96
14293;BME280;62290;59.420;17.842;2022-11-20T06:18:44;101005.94;;;21.51;27.91
14293;BME280;62290;59.420;17.842;2022-11-20T06:21:14;101028.09;;;21.66;28.09
14293;BME280;62290;59.420;17.842;2022-11-20T06:23:43;101011.94;;;21.55;27.71
14293;BME280;62290;59.420;17.842;2022-11-20T06:26:13;101031.59;;;21.67;27.65
14293;BME280;62290;59.420;17.842;2022-11-20T06:28:41;101035.16;;;21.67;27.75
14293;BME280;62290;59.420;17.842;2022-11-20T06:31:11;101033.34;;;21.68;27.85
14293;BME280;62290;59.420;17.842;2022-11-20T06:33:42;101027.97;;;21.68;27.95
14293;BME280;62290;59.420;17.842;2022-11-20T06:36:11;101035.16;;;21.67;27.85
14293;BME280;62290;59.420;17.842;2022-11-20T06:38:40;101020.06;;;21.66;27.97
14293;BME280;62290;59.420;17.842;2022-11-20T06:41:10;101018.09;;;21.68;27.69
14293;BME280;62290;59.420;17.842;2022-11-20T06:43:38;101019.06;;;21.67;27.73
14293;BME280;62290;59.420;17.842;2022-11-20T06:46:06;101015.50;;;21.67;28.10
14293;BME280;62290;59.420;17.842;2022-11-20T06:48:34;101022.81;;;21.65;28.08
14293;BME280;62290;59.420;17.842;2022-11-20T06:51:04;101023.56;;;21.67;27.63
14293;BME280;62290;59.420;17.842;2022-11-20T06:53:33;101021.88;;;21.66;28.09
14293;BME280;62290;59.420;17.842;2022-11-20T06:56:00;101000.13;;;21.58;28.13
14293;BME280;62290;59.420;17.842;2022-11-20T06:58:30;101006.72;;;21.65;27.74
14293;BME280;62290;59.420;17.842;2022-11-20T07:00:58;100996.00;;;21.65;27.70
14293;BME280;62290;59.420;17.842;2022-11-20T07:03:27;100984.31;;;21.66;27.89
14293;BME280;62290;59.420;17.842;2022-11-20T07:05:55;100997.00;;;21.64;28.12
14293;BME280;62290;59.420;17.842;2022-11-20T07:08:25;101013.81;;;21.66;28.13
14293;BME280;62290;59.420;17.842;2022-11-20T07:10:57;101013.91;;;21.64;27.69
14293;BME280;62290;59.420;17.842;2022-11-20T07:13:26;101017.47;;;21.65;27.66
14293;BME280;62290;59.420;17.842;2022-11-20T07:15:54;101012.31;;;21.62;27.79
14293;BME280;62290;59.420;17.842;2022-11-20T07:18:22;101013.09;;;21.64;27.72
14293;BME280;62290;59.420;17.842;2022-11-20T07:20:50;101006.00;;;21.63;28.03
14293;BME280;62290;59.420;17.842;2022-11-20T07:23:18;101012.09;;;21.65;28.07
14293;BME280;62290;59.420;17.842;2022-11-20T07:25:47;101005.03;;;21.64;27.70
14293;BME280;62290;59.420;17.842;2022-11-20T07:28:15;101004.06;;;21.65;28.07
14293;BME280;62290;59.420;17.842;2022-11-20T07:30:49;100997.72;;;21.66;27.88
14293;BME280;62290;59.420;17.842;2022-11-20T07:33:18;100983.44;;;21.65;27.80
14293;BME280;62290;59.420;17.842;2022-11-20T07:35:46;100974.53;;;21.65;27.65
14293;BME280;62290;59.420;17.842;2022-11-20T07:38:14;100970.03;;;21.65;27.72
14293;BME280;62290;59.420;17.842;2022-11-20T07:40:42;100968.31;;;21.64;28.06
14293;BME280;62290;59.420;17.842;2022-11-20T07:43:12;100976.38;;;21.64;27.85
14293;BME280;62290;59.420;17.842;2022-11-20T07:45:41;100972.84;;;21.64;27.67
14293;BME280;62290;59.420;17.842;2022-11-20T07:48:11;100970.19;;;21.64;27.75
14293;BME280;62290;59.420;17.842;2022-11-20T07:50:39;100968.44;;;21.63;28.09
14293;BME280;62290;59.420;17.842;2022-11-20T07:53:07;100962.13;;;21.64;28.11
14293;BME280;62290;59.420;17.842;2022-11-20T07:55:34;100957.72;;;21.63;27.83
14293;BME280;62290;59.420;17.842;2022-11-20T07:58:02;100941.34;;;21.54;28.07
14293;BME280;62290;59.420;17.842;2022-11-20T08:00:32;100964.03;;;21.62;27.95
14293;BME280;62290;59.420;17.842;2022-11-20T08:03:03;100944.47;;;21.48;27.90
14293;BME280;62290;59.420;17.842;2022-11-20T08:05:31;100962.22;;;21.62;27.75
14293;BME280;62290;59.420;17.842;2022-11-20T08:07:59;100944.44;;;21.61;28.06
14293;BME280;62290;59.420;17.842;2022-11-20T08:10:27;100947.13;;;21.61;28.17
14293;BME280;62290;59.420;17.842;2022-11-20T08:12:55;100940.91;;;21.61;27.72
14293;BME280;62290;59.420;17.842;2022-11-20T08:15:47;100942.59;;;21.62;28.07
14293;BME280;62290;59.420;17.842;2022-11-20T08:18:17;100938.31;;;21.59;28.20
14293;BME280;62290;59.420;17.842;2022-11-20T08:21:02;100931.25;;;21.58;27.85
14293;BME280;62290;59.420;17.842;2022-11-20T08:23:31;100941.97;;;21.58;27.88
14293;BME280;62290;59.420;17.842;2022-11-20T08:25:59;100933.06;;;21.58;28.07
14293;BME280;62290;59.420;17.842;2022-11-20T08:28:27;100933.06;;;21.58;27.87
14293;BME280;62290;59.420;17.842;2022-11-20T08:30:59;100934.66;;;21.60;28.05
14293;BME280;62290;59.420;17.842;2022-11-20T08:33:28;100934.03;;;21.57;28.11
14293;BME280;62290;59.420;17.842;2022-11-20T08:35:59;100927.59;;;21.59;27.79
14293;BME280;62290;59.420;17.842;2022-11-20T08:38:27;100912.31;;;21.48;27.75
14293;BME280;62290;59.420;17.842;2022-11-20T08:40:56;100921.38;;;21.59;27.86
14293;BME280;62290;59.420;17.842;2022-11-20T08:43:42;100901.25;;;21.53;28.03
14293;BME280;62290;59.420;17.842;2022-11-20T08:46:12;100909.81;;;21.58;27.98
14293;BME280;62290;59.420;17.842;2022-11-20T08:48:40;100907.97;;;21.59;28.05
14293;BME280;62290;59.420;17.842;2022-11-20T08:51:08;100912.47;;;21.58;27.86
14293;BME280;62290;59.420;17.842;2022-11-20T08:53:36;100901.75;;;21.58;27.89
14293;BME280;62290;59.420;17.842;2022-11-20T08:56:05;100892.84;;;21.58;27.85
14293;BME280;62290;59.420;17.842;2022-11-20T08:58:33;100892.84;;;21.58;28.21
14293;BME280;62290;59.420;17.842;2022-11-20T09:01:23;100893.81;;;21.57;27.88
14293;BME280;62290;59.420;17.842;2022-11-20T09:03:51;100893.81;;;21.57;27.86
14293;BME280;62290;59.420;17.842;2022-11-20T09:06:19;100891.97;;;21.57;28.11
14293;BME280;62290;59.420;17.842;2022-11-20T09:08:48;100892.84;;;21.58;28.18
14293;BME280;62290;59.420;17.842;2022-11-20T09:11:19;100889.44;;;21.56;28.17
14293;BME280;62290;59.420;17.842;2022-11-20T09:13:47;100886.63;;;21.57;27.84
14293;BME280;62290;59.420;17.842;2022-11-20T09:16:15;100886.63;;;21.57;27.96
14293;BME280;62290;59.420;17.842;2022-11-20T09:18:44;100882.13;;;21.58;28.14
14293;BME280;62290;59.420;17.842;2022-11-20T09:21:13;100877.72;;;21.57;28.18
14293;BME280;62290;59.420;17.842;2022-11-20T09:23:41;100880.41;;;21.57;27.88
14293;BME280;62290;59.420;17.842;2022-11-20T09:26:10;100877.72;;;21.57;28.17
14293;BME280;62290;59.420;17.842;2022-11-20T09:28:39;100873.34;;;21.56;28.08
14293;BME280;62290;59.420;17.842;2022-11-20T09:31:08;100878.72;;;21.56;28.18
14293;BME280;62290;59.420;17.842;2022-11-20T09:33:36;100862.34;;;21.47;27.85
14293;BME280;62290;59.420;17.842;2022-11-20T09:36:06;100868.84;;;21.56;28.15
14293;BME280;62290;59.420;17.842;2022-11-20T09:38:34;100867.13;;;21.55;28.28
14293;BME280;62290;59.420;17.842;2022-11-20T09:41:04;100863.47;;;21.56;27.86
14293;BME280;62290;59.420;17.842;2022-11-20T09:43:42;100861.63;;;21.57;27.86
14293;BME280;62290;59.420;17.842;2022-11-20T09:46:17;100854.56;;;21.56;28.27
14293;BME280;62290;59.420;17.842;2022-11-20T09:48:59;100853.72;;;21.55;27.98
14293;BME280;62290;59.420;17.842;2022-11-20T09:51:39;100855.53;;;21.54;27.90
14293;BME280;62290;59.420;17.842;2022-11-20T09:54:16;100846.53;;;21.56;27.88
14293;BME280;62290;59.420;17.842;2022-11-20T09:56:46;100840.41;;;21.53;27.87
14293;BME280;62290;59.420;17.842;2022-11-20T09:59:29;100839.44;;;21.54;28.25
14293;BME280;62290;59.420;17.842;2022-11-20T10:02:01;100824.44;;;21.52;27.79
14293;BME280;62290;59.420;17.842;2022-11-20T10:04:31;100831.63;;;21.51;28.03
14293;BME280;62290;59.420;17.842;2022-11-20T10:07:12;100818.94;;;21.53;27.74
14293;BME280;62290;59.420;17.842;2022-11-20T10:09:58;100832.47;;;21.52;27.86
14293;BME280;62290;59.420;17.842;2022-11-20T10:12:33;100814.56;;;21.52;28.33
14293;BME280;62290;59.420;17.842;2022-11-20T10:15:13;100801.25;;;21.51;28.25
14293;BME280;62290;59.420;17.842;2022-11-20T10:17:54;100803.94;;;21.51;28.05
14293;BME280;62290;59.420;17.842;2022-11-20T10:20:30;100796.75;;;21.51;28.42
14293;BME280;62290;59.420;17.842;2022-11-20T10:26:03;100790.69;;;21.49;28.37
14293;BME280;62290;59.420;17.842;2022-11-20T10:28:48;100794.09;;;21.51;28.15
14293;BME280;62290;59.420;17.842;2022-11-20T10:31:31;100793.34;;;21.49;28.36
14293;BME280;62290;59.420;17.842;2022-11-20T10:34:03;100790.69;;;21.49;28.02
14293;BME280;62290;59.420;17.842;2022-11-20T10:36:40;100780.91;;;21.48;28.07
14293;BME280;62290;59.420;17.842;2022-11-20T10:39:17;100784.34;;;21.50;28.28
14293;BME280;62290;59.420;17.842;2022-11-20T10:41:50;100787.03;;;21.50;28.17
14293;BME280;62290;59.420;17.842;2022-11-20T10:44:21;100776.41;;;21.49;28.10
14293;BME280;62290;59.420;17.842;2022-11-20T10:47:12;100773.72;;;21.49;27.97
14293;BME280;62290;59.420;17.842;2022-11-20T10:49:41;100771.03;;;21.49;27.87
14293;BME280;62290;59.420;17.842;2022-11-20T10:52:16;100768.25;;;21.50;28.20
14293;BME280;62290;59.420;17.842;2022-11-20T10:54:54;100775.31;;;21.51;28.24
14293;BME280;62290;59.420;17.842;2022-11-20T10:57:45;100766.53;;;21.49;28.30
14293;BME280;62290;59.420;17.842;2022-11-20T11:00:15;100768.38;;;21.49;28.21
14293;BME280;62290;59.420;17.842;2022-11-20T11:02:48;100764.72;;;21.50;28.26
14293;BME280;62290;59.420;17.842;2022-11-20T11:05:24;100757.53;;;21.50;27.64
14293;BME280;62290;59.420;17.842;2022-11-20T11:07:55;100759.47;;;21.48;27.87
14293;BME280;62290;59.420;17.842;2022-11-20T11:10:28;100744.97;;;21.51;28.09
14293;BME280;62290;59.420;17.842;2022-11-20T11:12:59;100743.50;;;21.47;27.93
14293;BME280;62290;59.420;17.842;2022-11-20T11:15:30;100701.66;;;21.22;28.03
14293;BME280;62290;59.420;17.842;2022-11-20T11:17:58;100737.19;;;21.48;28.21
14293;BME280;62290;59.420;17.842;2022-11-20T11:20:26;100732.78;;;21.47;28.39
14293;BME280;62290;59.420;17.842;2022-11-20T11:22:55;100737.28;;;21.46;28.60
14293;BME280;62290;59.420;17.842;2022-11-20T11:25:28;100725.59;;;21.47;28.26
14293;BME280;62290;59.420;17.842;2022-11-20T11:27:58;100724.88;;;21.45;28.66
14293;BME280;62290;59.420;17.842;2022-11-20T11:30:28;100713.16;;;21.46;28.29
14293;BME280;62290;59.420;17.842;2022-11-20T11:33:04;100709.50;;;21.47;28.29
14293;BME280;62290;59.420;17.842;2022-11-20T11:35:33;100708.88;;;21.44;28.64
14293;BME280;62290;59.420;17.842;2022-11-20T11:38:06;100689.63;;;21.39;28.82
14293;BME280;62290;59.420;17.842;2022-11-20T11:40:38;100697.06;;;21.46;28.80
14293;BME280;62290;59.420;17.842;2022-11-20T11:43:17;100689.75;;;21.48;28.87
14293;BME280;62290;59.420;17.842;2022-11-20T11:46:21;100688.16;;;21.46;28.86
14293;BME280;62290;59.420;17.842;2022-11-20T11:48:56;100679.38;;;21.44;28.89
14293;BME280;62290;59.420;17.842;2022-11-20T11:51:26;100680.13;;;21.46;29.13
14293;BME280;62290;59.420;17.842;2022-11-20T11:53:58;100678.28;;;21.46;29.07
14293;BME280;62290;59.420;17.842;2022-11-20T11:56:28;100669.28;;;21.47;28.77
14293;BME280;62290;59.420;17.842;2022-11-20T11:59:01;100667.47;;;21.48;28.95
14293;BME280;62290;59.420;17.842;2022-11-20T12:01:34;100626.59;;;21.22;29.12
14293;BME280;62290;59.420;17.842;2022-11-20T12:04:15;100665.88;;;21.45;28.79
14293;BME280;62290;59.420;17.842;2022-11-20T12:06:47;100661.34;;;21.46;29.10
14293;BME280;62290;59.420;17.842;2022-11-20T12:09:18;100663.19;;;21.45;28.83
14293;BME280;62290;59.420;17.842;2022-11-20T12:11:54;100654.06;;;21.48;28.76
14293;BME280;62290;59.420;17.842;2022-11-20T12:14:36;100668.44;;;21.47;28.76
14293;BME280;62290;59.420;17.842;2022-11-20T12:17:05;100655.97;;;21.46;29.17
14293;BME280;62290;59.420;17.842;2022-11-20T12:19:34;100633.56;;;21.36;28.92
14293;BME280;62290;59.420;17.842;2022-11-20T12:22:06;100645.16;;;21.47;29.26
14293;BME280;62290;59.420;17.842;2022-11-20T12:24:52;100637.22;;;21.46;29.10
14293;BME280;62290;59.420;17.842;2022-11-20T12:27:44;100639.66;;;21.49;29.01
14293;BME280;62290;59.420;17.842;2022-11-20T12:30:18;100634.53;;;21.46;29.38
14293;BME280;62290;59.420;17.842;2022-11-20T12:33:17;100640.50;;;21.49;29.15
14293;BME280;62290;59.420;17.842;2022-11-20T12:35:57;100638.81;;;21.48;29.42
14293;BME280;62290;59.420;17.842;2022-11-20T12:38:48;100634.44;;;21.47;29.27
14293;BME280;62290;59.420;17.842;2022-11-20T12:41:29;100631.63;;;21.49;29.24
14293;BME280;62290;59.420;17.842;2022-11-20T12:44:36;100618.34;;;21.47;29.22
14293;BME280;62290;59.420;17.842;2022-11-20T12:47:36;100615.53;;;21.49;29.25
14293;BME280;62290;59.420;17.842;2022-11-20T12:50:15;100616.53;;;21.48;29.39
14293;BME280;62290;59.420;17.842;2022-11-20T12:52:48;100592.25;;;21.38;29.25
14293;BME280;62290;59.420;17.842;2022-11-20T12:55:41;100616.25;;;21.51;29.18
14293;BME280;62290;59.420;17.842;2022-11-20T12:58:15;100599.34;;;21.50;29.18
14293;BME280;62290;59.420;17.842;2022-11-20T13:00:55;100598.34;;;21.51;29.33
14293;BME280;62290;59.420;17.842;2022-11-20T13:03:39;100598.34;;;21.51;28.91
14293;BME280;62290;59.420;17.842;2022-11-20T13:06:14;100591.28;;;21.50;29.26